Time;durP1;ratioP1;P1;durP2;ratioP2;P2;SDS_P1;SDS_P2;PMS_P1;PMS_P2;Temp;Humidity;BMP_temperature;BMP_pressure;BME280_temperature;BME280_humidity;BME280_pressure;Samples;Min_cycle;Max_cycle;Signal;HPM_P1;HPM_P2
2022/10/13 00:01:29;;;;;;;15.55;7.53;;;;;;;;;;5021269;28;20065;-75
2022/10/13 00:03:55;;;;;;;18.25;8.65;;;;;;;;;;5023051;28;20661;-76
2022/10/13 00:06:23;;;;;;;13.00;8.13;;;;;;;;;;5039963;28;20526;-76
2022/10/13 00:08:50;;;;;;;14.35;8.50;;;;;;;;;;5039775;28;20058;-76
2022/10/13 00:11:21;;;;;;;15.23;8.35;;;;;;;;;;5022302;28;20085;-77
2022/10/13 00:13:48;;;;;;;13.10;7.35;;;;;;;;;;5039458;28;20088;-76
2022/10/13 00:16:16;;;;;;;17.20;8.20;;;;;;;;;;5037716;28;20176;-75
2022/10/13 00:18:42;;;;;;;15.70;8.07;;;;;;;;;;5040610;28;20759;-75
2022/10/13 00:21:11;;;;;;;13.15;8.15;;;;;;;;;;5039186;28;20045;-76
2022/10/13 00:23:38;;;;;;;15.93;8.60;;;;;;;;;;5046441;28;20057;-75
2022/10/13 00:26:05;;;;;;;15.23;8.57;;;;;;;;;;5060218;28;20142;-75
2022/10/13 00:28:32;;;;;;;17.52;9.25;;;;;;;;;;5046662;28;20490;-76
2022/10/13 00:30:59;;;;;;;11.43;8.35;;;;;;;;;;5041640;28;20976;-75
2022/10/13 00:33:25;;;;;;;16.27;9.95;;;;;;;;;;5038433;28;20054;-76
2022/10/13 00:35:52;;;;;;;12.63;8.30;;;;;;;;;;5040001;28;20976;-76
2022/10/13 00:38:19;;;;;;;14.38;7.63;;;;;;;;;;5040611;28;20064;-75
2022/10/13 00:40:47;;;;;;;15.50;8.90;;;;;;;;;;5024168;28;20060;-75
2022/10/13 00:43:17;;;;;;;16.42;10.02;;;;;;;;;;5042243;28;20057;-76
2022/10/13 00:45:44;;;;;;;16.98;8.38;;;;;;;;;;5039879;28;20104;-75
2022/10/13 00:48:11;;;;;;;18.17;9.13;;;;;;;;;;5040293;28;20064;-75
2022/10/13 00:50:39;;;;;;;19.75;8.98;;;;;;;;;;5039508;28;20495;-75
2022/10/13 00:53:06;;;;;;;18.52;8.77;;;;;;;;;;5038778;28;20056;-75
2022/10/13 00:55:33;;;;;;;18.35;9.85;;;;;;;;;;5040540;28;20407;-77
2022/10/13 00:58:01;;;;;;;15.55;8.23;;;;;;;;;;5037818;28;20081;-75
2022/10/13 01:00:31;;;;;;;17.45;9.50;;;;;;;;;;5018056;28;20054;-76
2022/10/13 01:02:58;;;;;;;18.90;9.45;;;;;;;;;;5017704;28;20117;-77
2022/10/13 01:05:24;;;;;;;14.55;8.55;;;;;;;;;;5010032;28;20061;-77
2022/10/13 01:07:50;;;;;;;14.80;8.38;;;;;;;;;;5017215;28;20574;-77
2022/10/13 01:10:28;;;;;;;12.45;8.30;;;;;;;;;;5035875;28;20594;-76
2022/10/13 01:13:00;;;;;;;14.43;8.63;;;;;;;;;;5018979;28;20054;-76
2022/10/13 01:15:33;;;;;;;15.98;9.23;;;;;;;;;;5033233;28;20054;-76
2022/10/13 01:18:03;;;;;;;17.20;8.07;;;;;;;;;;5018508;28;20045;-75
2022/10/13 01:20:42;;;;;;;16.35;9.40;;;;;;;;;;5017292;28;20525;-74
2022/10/13 01:23:15;;;;;;;18.65;9.75;;;;;;;;;;5025440;28;20112;-75
2022/10/13 01:26:00;;;;;;;14.93;9.13;;;;;;;;;;5026378;28;20061;-76
2022/10/13 01:28:32;;;;;;;16.58;8.38;;;;;;;;;;5019353;28;20053;-77
2022/10/13 01:31:15;;;;;;;17.60;9.63;;;;;;;;;;5018447;28;20093;-77
2022/10/13 01:33:51;;;;;;;16.92;7.97;;;;;;;;;;5018893;28;20061;-76
2022/10/13 01:36:23;;;;;;;17.23;9.50;;;;;;;;;;5019414;28;20054;-76
2022/10/13 01:39:08;;;;;;;17.33;10.50;;;;;;;;;;5018923;28;20858;-76
2022/10/13 01:41:36;;;;;;;14.57;8.95;;;;;;;;;;5019228;28;20057;-76
2022/10/13 01:44:15;;;;;;;17.58;8.35;;;;;;;;;;5017795;28;20057;-76
2022/10/13 01:46:42;;;;;;;15.00;8.63;;;;;;;;;;5019122;28;20088;-76
2022/10/13 01:49:10;;;;;;;16.90;9.40;;;;;;;;;;5020387;28;20510;-77
2022/10/13 01:51:36;;;;;;;16.10;8.55;;;;;;;;;;5022996;28;20054;-77
2022/10/13 01:54:03;;;;;;;18.63;9.23;;;;;;;;;;5017241;28;20049;-76
2022/10/13 01:56:29;;;;;;;17.48;9.32;;;;;;;;;;5020374;28;20080;-76
2022/10/13 01:58:57;;;;;;;16.58;8.90;;;;;;;;;;5018372;28;20058;-76
2022/10/13 02:01:23;;;;;;;20.38;8.93;;;;;;;;;;5034036;28;20525;-76
2022/10/13 02:04:00;;;;;;;13.55;8.85;;;;;;;;;;5039203;28;20724;-76
2022/10/13 02:06:31;;;;;;;13.82;8.95;;;;;;;;;;5039861;28;20061;-76
2022/10/13 02:09:01;;;;;;;16.27;9.07;;;;;;;;;;5037261;28;20056;-76
2022/10/13 02:11:27;;;;;;;14.68;8.55;;;;;;;;;;5039704;28;20059;-76
2022/10/13 02:13:57;;;;;;;20.48;10.95;;;;;;;;;;5040173;28;20053;-77
2022/10/13 02:16:24;;;;;;;15.48;8.90;;;;;;;;;;5041999;28;20050;-76
2022/10/13 02:18:50;;;;;;;16.98;9.85;;;;;;;;;;5041570;28;20061;-75
2022/10/13 02:21:17;;;;;;;20.50;9.32;;;;;;;;;;5041602;28;20498;-76
2022/10/13 02:23:44;;;;;;;14.18;9.60;;;;;;;;;;5041823;28;20517;-76
2022/10/13 02:26:11;;;;;;;12.43;8.85;;;;;;;;;;5040925;28;20057;-75
2022/10/13 02:28:37;;;;;;;17.35;9.68;;;;;;;;;;5041717;28;20151;-76
2022/10/13 02:31:05;;;;;;;17.08;8.77;;;;;;;;;;5044550;28;20158;-76
2022/10/13 02:33:32;;;;;;;16.63;9.43;;;;;;;;;;5035903;28;20499;-77
2022/10/13 02:35:58;;;;;;;15.07;9.23;;;;;;;;;;5042062;28;20537;-76
2022/10/13 02:38:25;;;;;;;17.90;8.82;;;;;;;;;;5024257;28;20205;-76
2022/10/13 02:40:53;;;;;;;15.43;9.15;;;;;;;;;;5041353;28;20266;-76
2022/10/13 02:43:20;;;;;;;16.23;9.02;;;;;;;;;;5024665;28;20057;-77
2022/10/13 02:45:46;;;;;;;13.07;8.20;;;;;;;;;;5044953;28;20049;-75
2022/10/13 02:48:12;;;;;;;16.98;8.98;;;;;;;;;;5039537;28;20056;-76
2022/10/13 02:50:39;;;;;;;19.98;9.27;;;;;;;;;;5042241;28;20096;-76
2022/10/13 02:53:05;;;;;;;17.42;9.23;;;;;;;;;;5039507;28;20056;-76
2022/10/13 02:55:31;;;;;;;15.70;10.38;;;;;;;;;;5041178;28;20045;-76
2022/10/13 02:57:57;;;;;;;15.65;9.63;;;;;;;;;;5041557;28;20159;-76
2022/10/13 03:00:24;;;;;;;14.82;9.27;;;;;;;;;;5040101;28;20057;-76
2022/10/13 03:02:50;;;;;;;13.45;8.98;;;;;;;;;;5041277;28;20058;-76
2022/10/13 03:05:16;;;;;;;15.98;9.30;;;;;;;;;;5039821;28;20242;-75
2022/10/13 03:07:43;;;;;;;14.77;9.30;;;;;;;;;;5040441;28;20057;-76
2022/10/13 03:10:09;;;;;;;19.52;10.38;;;;;;;;;;5041353;28;20057;-76
2022/10/13 03:12:35;;;;;;;15.90;9.75;;;;;;;;;;5042392;28;20057;-76
2022/10/13 03:15:02;;;;;;;15.02;9.18;;;;;;;;;;5040690;28;20053;-76
2022/10/13 03:17:28;;;;;;;15.15;9.18;;;;;;;;;;5041620;28;20053;-76
2022/10/13 03:19:54;;;;;;;16.83;9.25;;;;;;;;;;5044509;28;20053;-76
2022/10/13 03:22:21;;;;;;;18.85;9.82;;;;;;;;;;5040460;28;20053;-76
2022/10/13 03:24:48;;;;;;;20.23;10.10;;;;;;;;;;5038471;28;20564;-76
2022/10/13 03:27:14;;;;;;;14.80;9.25;;;;;;;;;;5038447;28;20522;-75
2022/10/13 03:29:40;;;;;;;15.95;8.70;;;;;;;;;;5042597;28;20065;-77
2022/10/13 03:32:07;;;;;;;17.67;10.55;;;;;;;;;;5041362;28;20060;-78
2022/10/13 03:34:33;;;;;;;14.50;9.25;;;;;;;;;;5040446;28;20093;-75
2022/10/13 03:37:00;;;;;;;16.02;9.57;;;;;;;;;;5023211;28;20056;-75
2022/10/13 03:39:26;;;;;;;16.75;10.27;;;;;;;;;;5030291;28;20536;-76
2022/10/13 03:41:52;;;;;;;18.08;9.88;;;;;;;;;;5041784;28;20057;-75
2022/10/13 03:44:19;;;;;;;13.10;9.18;;;;;;;;;;5041194;28;20053;-75
2022/10/13 03:46:45;;;;;;;17.30;9.77;;;;;;;;;;5043044;28;20111;-76
2022/10/13 03:49:11;;;;;;;15.85;10.40;;;;;;;;;;5042906;28;20058;-77
2022/10/13 03:51:38;;;;;;;19.40;10.00;;;;;;;;;;5040383;28;20054;-77
2022/10/13 03:54:04;;;;;;;17.67;9.77;;;;;;;;;;5040475;28;20054;-76
2022/10/13 03:56:30;;;;;;;17.45;9.55;;;;;;;;;;5040882;28;20872;-74
2022/10/13 03:58:58;;;;;;;15.13;9.40;;;;;;;;;;5040482;28;20124;-76
2022/10/13 04:01:26;;;;;;;16.70;9.80;;;;;;;;;;5041263;28;20072;-76
2022/10/13 04:03:54;;;;;;;15.15;10.07;;;;;;;;;;5040350;28;20069;-76
2022/10/13 04:06:21;;;;;;;13.57;9.35;;;;;;;;;;5028421;28;20498;-76
2022/10/13 04:08:48;;;;;;;14.40;9.50;;;;;;;;;;5041174;28;20084;-75
2022/10/13 04:11:15;;;;;;;15.05;9.73;;;;;;;;;;5040805;28;20053;-76
2022/10/13 04:13:41;;;;;;;14.93;9.52;;;;;;;;;;5040362;28;20056;-76
2022/10/13 04:16:11;;;;;;;14.45;9.50;;;;;;;;;;5039594;28;20143;-76
2022/10/13 04:18:37;;;;;;;17.20;10.70;;;;;;;;;;5042215;28;20054;-75
2022/10/13 04:21:12;;;;;;;19.35;10.38;;;;;;;;;;5055985;28;20289;-75
2022/10/13 04:23:39;;;;;;;18.83;10.10;;;;;;;;;;5042310;28;20061;-75
2022/10/13 04:26:05;;;;;;;19.00;10.27;;;;;;;;;;5041076;28;20073;-76
2022/10/13 04:28:34;;;;;;;17.60;10.63;;;;;;;;;;5044079;28;20057;-75
2022/10/13 04:31:01;;;;;;;14.93;9.45;;;;;;;;;;5041990;28;20574;-76
2022/10/13 04:33:28;;;;;;;21.13;11.10;;;;;;;;;;5041874;28;20056;-76
2022/10/13 04:35:54;;;;;;;14.68;9.90;;;;;;;;;;5040959;28;20053;-75
2022/10/13 04:38:21;;;;;;;14.80;9.85;;;;;;;;;;5042151;28;20061;-75
2022/10/13 04:40:47;;;;;;;14.70;10.73;;;;;;;;;;5041471;28;20492;-76
2022/10/13 04:43:14;;;;;;;17.33;10.27;;;;;;;;;;5037359;28;20056;-76
2022/10/13 04:45:40;;;;;;;22.40;12.77;;;;;;;;;;5041770;28;20550;-76
2022/10/13 04:48:07;;;;;;;15.73;10.27;;;;;;;;;;5042296;28;20057;-76
2022/10/13 04:50:33;;;;;;;19.75;11.18;;;;;;;;;;5042849;28;20054;-75
2022/10/13 04:52:59;;;;;;;17.15;10.35;;;;;;;;;;5040408;28;20576;-76
2022/10/13 04:55:26;;;;;;;19.17;12.27;;;;;;;;;;5039473;28;20575;-75
2022/10/13 04:57:52;;;;;;;19.88;11.63;;;;;;;;;;5039683;28;20057;-76
2022/10/13 05:00:19;;;;;;;17.00;10.57;;;;;;;;;;5022749;28;20490;-76
2022/10/13 05:02:45;;;;;;;19.60;11.18;;;;;;;;;;5023040;28;20453;-76
2022/10/13 05:05:11;;;;;;;18.92;10.82;;;;;;;;;;5038451;28;20057;-75
2022/10/13 05:07:38;;;;;;;23.65;11.55;;;;;;;;;;5038659;28;20502;-76
2022/10/13 05:10:04;;;;;;;17.40;11.35;;;;;;;;;;5040642;28;20056;-75
2022/10/13 05:12:30;;;;;;;20.33;11.70;;;;;;;;;;5041444;28;20600;-76
2022/10/13 05:14:57;;;;;;;18.30;11.27;;;;;;;;;;5039886;28;20057;-76
2022/10/13 05:17:24;;;;;;;18.55;11.10;;;;;;;;;;5037386;28;20053;-76
2022/10/13 05:19:50;;;;;;;23.45;11.55;;;;;;;;;;5041030;28;20503;-76
2022/10/13 05:22:16;;;;;;;18.50;12.23;;;;;;;;;;5039038;28;20049;-76
2022/10/13 05:24:43;;;;;;;20.02;11.30;;;;;;;;;;5039416;28;20056;-75
2022/10/13 05:27:11;;;;;;;20.00;12.32;;;;;;;;;;5036388;28;20857;-76
2022/10/13 05:29:37;;;;;;;18.48;11.20;;;;;;;;;;5021548;28;20057;-75
2022/10/13 05:32:04;;;;;;;19.95;11.82;;;;;;;;;;5039675;28;20489;-76
2022/10/13 05:34:31;;;;;;;20.23;11.15;;;;;;;;;;5038753;28;20057;-75
2022/10/13 05:36:58;;;;;;;19.92;12.30;;;;;;;;;;5039445;28;20153;-76
2022/10/13 05:39:26;;;;;;;17.35;11.25;;;;;;;;;;5040412;28;20046;-77
2022/10/13 05:41:52;;;;;;;19.08;11.15;;;;;;;;;;5040535;28;20113;-77
2022/10/13 05:44:19;;;;;;;18.90;12.80;;;;;;;;;;5040344;28;20050;-76
2022/10/13 05:46:45;;;;;;;22.35;12.15;;;;;;;;;;5040359;28;20058;-75
2022/10/13 05:49:11;;;;;;;19.05;11.57;;;;;;;;;;5041394;28;20064;-75
2022/10/13 05:51:53;;;;;;;16.38;10.77;;;;;;;;;;5045319;28;20486;-75
2022/10/13 05:54:29;;;;;;;24.85;11.90;;;;;;;;;;5040004;28;20502;-76
2022/10/13 05:56:58;;;;;;;17.83;11.55;;;;;;;;;;5041660;28;20441;-76
2022/10/13 05:59:26;;;;;;;23.27;12.52;;;;;;;;;;5046042;28;20049;-76
2022/10/13 06:01:53;;;;;;;21.55;11.88;;;;;;;;;;5040876;28;20572;-75
2022/10/13 06:04:23;;;;;;;19.10;11.15;;;;;;;;;;5050393;28;20057;-75
2022/10/13 06:06:50;;;;;;;20.33;12.45;;;;;;;;;;5059849;28;20568;-75
2022/10/13 06:09:16;;;;;;;22.50;13.25;;;;;;;;;;5050006;28;20433;-78
2022/10/13 06:11:42;;;;;;;21.65;12.50;;;;;;;;;;5043630;28;20068;-76
2022/10/13 06:14:09;;;;;;;19.55;11.73;;;;;;;;;;5044435;28;20972;-75
2022/10/13 06:16:35;;;;;;;25.10;13.23;;;;;;;;;;5047038;28;20057;-75
2022/10/13 06:19:02;;;;;;;23.33;13.15;;;;;;;;;;5036450;28;20052;-76
2022/10/13 06:21:29;;;;;;;21.30;12.00;;;;;;;;;;5042181;28;20056;-75
2022/10/13 06:23:55;;;;;;;21.83;13.45;;;;;;;;;;5052114;28;20058;-75
2022/10/13 06:26:21;;;;;;;21.90;11.93;;;;;;;;;;5041701;28;20054;-75
2022/10/13 06:28:48;;;;;;;20.05;12.63;;;;;;;;;;5049383;28;20057;-75
2022/10/13 06:31:18;;;;;;;20.02;12.40;;;;;;;;;;5059564;28;20126;-75
2022/10/13 06:33:45;;;;;;;28.13;13.85;;;;;;;;;;5042153;28;20141;-75
2022/10/13 06:36:11;;;;;;;21.48;13.02;;;;;;;;;;5041430;28;20053;-75
2022/10/13 06:38:37;;;;;;;21.17;12.68;;;;;;;;;;5048753;28;20049;-75
2022/10/13 06:41:04;;;;;;;23.58;13.43;;;;;;;;;;5046129;28;20053;-75
2022/10/13 06:43:31;;;;;;;22.08;13.13;;;;;;;;;;5044083;28;20120;-75
2022/10/13 06:46:05;;;;;;;24.52;13.20;;;;;;;;;;5044996;28;20073;-75
2022/10/13 06:48:32;;;;;;;24.40;12.45;;;;;;;;;;5048863;28;20054;-76
2022/10/13 06:51:09;;;;;;;25.38;13.00;;;;;;;;;;5047281;28;20059;-76
2022/10/13 06:53:36;;;;;;;25.83;14.25;;;;;;;;;;5046459;28;20046;-75
2022/10/13 06:56:03;;;;;;;25.88;14.85;;;;;;;;;;5042475;28;20092;-75
2022/10/13 06:58:29;;;;;;;24.15;13.63;;;;;;;;;;5044563;28;20151;-76
2022/10/13 07:00:56;;;;;;;25.13;13.75;;;;;;;;;;5043448;28;20502;-75
2022/10/13 07:03:23;;;;;;;26.02;14.85;;;;;;;;;;5041308;28;20509;-76
2022/10/13 07:05:50;;;;;;;33.90;14.88;;;;;;;;;;5042557;28;20574;-75
2022/10/13 07:08:17;;;;;;;21.02;13.90;;;;;;;;;;5053085;28;20560;-75
2022/10/13 07:10:44;;;;;;;24.25;14.77;;;;;;;;;;5062249;28;20059;-77
2022/10/13 07:13:10;;;;;;;23.38;14.30;;;;;;;;;;5061734;28;20056;-75
2022/10/13 07:15:38;;;;;;;27.42;15.60;;;;;;;;;;5042171;28;20097;-76
2022/10/13 07:18:04;;;;;;;25.98;14.65;;;;;;;;;;5039240;28;20564;-77
2022/10/13 07:20:30;;;;;;;28.77;14.70;;;;;;;;;;5041568;28;20518;-76
2022/10/13 07:22:57;;;;;;;23.25;14.40;;;;;;;;;;5041413;28;20060;-77
2022/10/13 07:25:23;;;;;;;27.65;14.93;;;;;;;;;;5049592;28;20612;-76
2022/10/13 07:27:50;;;;;;;29.38;16.15;;;;;;;;;;5041241;28;20060;-76
2022/10/13 07:30:17;;;;;;;26.80;15.13;;;;;;;;;;5040672;28;20053;-76
2022/10/13 07:32:43;;;;;;;22.13;15.15;;;;;;;;;;5046374;28;20048;-75
2022/10/13 07:35:10;;;;;;;24.50;16.10;;;;;;;;;;5045557;28;20137;-75
2022/10/13 07:37:38;;;;;;;28.25;15.68;;;;;;;;;;5039258;28;20529;-75
2022/10/13 07:40:04;;;;;;;28.08;16.70;;;;;;;;;;5047146;28;20053;-75
2022/10/13 07:42:31;;;;;;;27.85;17.00;;;;;;;;;;5041938;28;20084;-76
2022/10/13 07:44:57;;;;;;;25.52;15.98;;;;;;;;;;5039523;28;20049;-77
2022/10/13 07:47:23;;;;;;;29.00;17.13;;;;;;;;;;5046747;28;20552;-76
2022/10/13 07:49:50;;;;;;;33.90;17.48;;;;;;;;;;5051497;28;20056;-75
2022/10/13 07:52:16;;;;;;;26.00;16.80;;;;;;;;;;5039910;28;20238;-76
2022/10/13 07:54:43;;;;;;;30.33;16.88;;;;;;;;;;5047266;28;20134;-76
2022/10/13 07:57:09;;;;;;;32.75;18.05;;;;;;;;;;5057428;28;20056;-78
2022/10/13 07:59:36;;;;;;;35.45;18.63;;;;;;;;;;5053955;28;20053;-77
2022/10/13 08:02:02;;;;;;;32.40;19.30;;;;;;;;;;5046717;28;20061;-77
2022/10/13 08:04:32;;;;;;;35.50;20.42;;;;;;;;;;5050093;28;20054;-77
2022/10/13 08:06:58;;;;;;;37.85;20.58;;;;;;;;;;5039578;28;20087;-76
2022/10/13 08:09:25;;;;;;;36.60;21.33;;;;;;;;;;5040746;28;20243;-76
2022/10/13 08:11:51;;;;;;;32.05;20.38;;;;;;;;;;5040089;28;20060;-76
2022/10/13 08:14:21;;;;;;;33.47;19.70;;;;;;;;;;5046652;28;20064;-75
2022/10/13 08:16:49;;;;;;;32.95;19.85;;;;;;;;;;5040083;28;20096;-77
2022/10/13 08:19:20;;;;;;;35.00;18.73;;;;;;;;;;5038987;28;20073;-76
2022/10/13 08:21:47;;;;;;;35.15;19.75;;;;;;;;;;5040694;28;20776;-77
2022/10/13 08:24:33;;;;;;;32.42;19.60;;;;;;;;;;5047255;28;20086;-76
2022/10/13 08:27:00;;;;;;;33.13;19.13;;;;;;;;;;5031252;28;20565;-76
2022/10/13 08:29:26;;;;;;;30.27;18.95;;;;;;;;;;5030440;28;20053;-77
2022/10/13 08:31:53;;;;;;;33.58;19.33;;;;;;;;;;5050924;28;20057;-77
2022/10/13 08:34:20;;;;;;;29.08;17.90;;;;;;;;;;5035531;28;20057;-77
2022/10/13 08:36:47;;;;;;;33.55;19.58;;;;;;;;;;5054883;28;20163;-76
2022/10/13 08:39:14;;;;;;;35.22;19.58;;;;;;;;;;5047698;28;20050;-76
2022/10/13 08:41:44;;;;;;;26.33;16.45;;;;;;;;;;5041322;28;20313;-78
2022/10/13 08:44:13;;;;;;;26.83;17.15;;;;;;;;;;5039294;28;20425;-77
2022/10/13 08:47:11;;;;;;;25.60;16.40;;;;;;;;;;5039636;28;20494;-77
2022/10/13 08:49:39;;;;;;;29.85;16.50;;;;;;;;;;5038888;28;20060;-76
2022/10/13 08:52:11;;;;;;;27.45;16.08;;;;;;;;;;5046558;28;20049;-75
2022/10/13 08:54:38;;;;;;;26.17;16.35;;;;;;;;;;5037172;28;20506;-78
2022/10/13 08:57:05;;;;;;;29.38;16.42;;;;;;;;;;5039056;28;20602;-76
2022/10/13 08:59:31;;;;;;;25.20;15.63;;;;;;;;;;5040056;28;20053;-78
2022/10/13 09:01:58;;;;;;;27.13;16.38;;;;;;;;;;5038284;28;20061;-76
2022/10/13 09:04:35;;;;;;;28.23;16.40;;;;;;;;;;5039399;28;20058;-76
2022/10/13 09:07:08;;;;;;;31.23;17.80;;;;;;;;;;5038418;28;20575;-75
2022/10/13 09:09:35;;;;;;;25.73;17.27;;;;;;;;;;5039743;28;20057;-75
2022/10/13 09:12:02;;;;;;;27.63;18.00;;;;;;;;;;5045951;28;20053;-76
2022/10/13 09:14:35;;;;;;;27.98;17.92;;;;;;;;;;5044582;28;20581;-76
2022/10/13 09:17:12;;;;;;;28.25;18.00;;;;;;;;;;5053451;28;20057;-75
2022/10/13 09:19:40;;;;;;;30.77;18.48;;;;;;;;;;5019544;28;20496;-77
2022/10/13 09:22:25;;;;;;;22.95;16.33;;;;;;;;;;5045341;28;20103;-77
2022/10/13 09:25:07;;;;;;;24.00;17.70;;;;;;;;;;5049459;28;20059;-76
2022/10/13 09:27:58;;;;;;;23.77;17.15;;;;;;;;;;5048715;28;20045;-75
2022/10/13 09:30:27;;;;;;;27.00;17.13;;;;;;;;;;5043310;28;20131;-76
2022/10/13 09:33:06;;;;;;;28.02;17.75;;;;;;;;;;5044847;28;20053;-75
2022/10/13 09:35:33;;;;;;;28.92;18.10;;;;;;;;;;5043683;28;20517;-75
2022/10/13 09:38:03;;;;;;;29.98;18.10;;;;;;;;;;5042862;28;20532;-76
2022/10/13 09:40:31;;;;;;;28.08;17.58;;;;;;;;;;5043319;28;20053;-76
2022/10/13 09:42:59;;;;;;;26.13;17.85;;;;;;;;;;5043065;28;20064;-75
2022/10/13 09:45:26;;;;;;;25.52;17.63;;;;;;;;;;5042528;28;20064;-75
2022/10/13 09:47:54;;;;;;;25.20;17.55;;;;;;;;;;5044222;28;20056;-75
2022/10/13 09:50:28;;;;;;;27.73;17.15;;;;;;;;;;5013083;28;20132;-75
2022/10/13 09:53:13;;;;;;;24.65;17.10;;;;;;;;;;5041614;28;20046;-75
2022/10/13 09:55:39;;;;;;;28.10;17.98;;;;;;;;;;5039347;28;20601;-75
2022/10/13 09:58:13;;;;;;;29.85;17.23;;;;;;;;;;5054950;28;20053;-75
2022/10/13 10:00:40;;;;;;;20.55;15.45;;;;;;;;;;5053466;28;20061;-77
2022/10/13 10:03:14;;;;;;;23.88;14.50;;;;;;;;;;5041419;28;20768;-70
2022/10/13 10:05:46;;;;;;;21.67;15.25;;;;;;;;;;5041303;28;20213;-75
2022/10/13 10:08:15;;;;;;;16.83;12.88;;;;;;;;;;5041721;28;20431;-76
2022/10/13 10:10:42;;;;;;;38.78;15.75;;;;;;;;;;5041335;28;20136;-76
2022/10/13 10:13:09;;;;;;;20.05;12.35;;;;;;;;;;5033747;28;20346;-75
2022/10/13 10:15:55;;;;;;;19.90;13.38;;;;;;;;;;5054060;28;20053;-77
2022/10/13 10:18:30;;;;;;;25.85;13.07;;;;;;;;;;5041363;28;20053;-76
2022/10/13 10:20:56;;;;;;;;;;;;;;;;;;5042583;28;20056;-73
2022/10/13 10:23:23;;;;;;;20.65;11.63;;;;;;;;;;5039076;28;44121;-75
2022/10/13 10:25:56;;;;;;;19.40;10.65;;;;;;;;;;5051065;28;20122;-75
2022/10/13 10:28:25;;;;;;;18.90;11.70;;;;;;;;;;5042814;28;20064;-75
2022/10/13 10:30:56;;;;;;;19.83;11.55;;;;;;;;;;5050820;28;20147;-74
2022/10/13 10:33:39;;;;;;;23.10;12.73;;;;;;;;;;5057585;28;20092;-73
2022/10/13 10:36:15;;;;;;;17.02;11.25;;;;;;;;;;5041624;28;20061;-74
2022/10/13 10:38:41;;;;;;;15.32;11.32;;;;;;;;;;5042345;28;20518;-73
2022/10/13 10:41:27;;;;;;;16.15;10.13;;;;;;;;;;5042150;28;20045;-74
2022/10/13 10:43:55;;;;;;;18.75;10.15;;;;;;;;;;5048432;28;20063;-73
2022/10/13 10:46:22;;;;;;;24.45;10.73;;;;;;;;;;5039797;28;20054;-73
2022/10/13 10:48:52;;;;;;;20.25;10.60;;;;;;;;;;5031466;28;20057;-74
2022/10/13 10:51:29;;;;;;;19.25;10.23;;;;;;;;;;5040609;28;20057;-76
2022/10/13 10:54:15;;;;;;;18.90;10.70;;;;;;;;;;5052862;28;20053;-75
2022/10/13 10:56:46;;;;;;;18.35;10.75;;;;;;;;;;5047809;28;20049;-75
2022/10/13 10:59:28;;;;;;;13.63;9.57;;;;;;;;;;5039408;28;20048;-75
2022/10/13 11:01:54;;;;;;;17.90;10.27;;;;;;;;;;5043464;28;20057;-74
2022/10/13 11:04:44;;;;;;;21.52;10.27;;;;;;;;;;5041591;28;20057;-75
2022/10/13 11:07:10;;;;;;;17.80;9.30;;;;;;;;;;5013273;28;20054;-75
2022/10/13 11:09:39;;;;;;;17.13;8.75;;;;;;;;;;5052059;28;20049;-75
2022/10/13 11:12:21;;;;;;;16.00;8.80;;;;;;;;;;5061470;28;20053;-74
2022/10/13 11:14:48;;;;;;;12.63;8.68;;;;;;;;;;5054184;28;20233;-75
2022/10/13 11:17:18;;;;;;;16.27;8.45;;;;;;;;;;5039624;28;20529;-74
2022/10/13 11:19:46;;;;;;;17.30;9.05;;;;;;;;;;5035966;28;20058;-73
2022/10/13 11:22:14;;;;;;;12.88;7.70;;;;;;;;;;5036464;28;20050;-73
2022/10/13 11:24:40;;;;;;;16.10;8.32;;;;;;;;;;5038310;28;20053;-74
2022/10/13 11:27:06;;;;;;;14.45;7.85;;;;;;;;;;5042652;28;20081;-75
2022/10/13 11:29:50;;;;;;;13.05;6.97;;;;;;;;;;5047019;28;20061;-75
2022/10/13 11:32:26;;;;;;;15.10;8.10;;;;;;;;;;5045838;28;20060;-75
2022/10/13 11:34:52;;;;;;;;;;;;;;;;;;5041586;28;20410;-74
2022/10/13 11:37:18;;;;;;;12.55;7.97;;;;;;;;;;5036448;28;47268;-74
2022/10/13 11:39:50;;;;;;;14.63;8.50;;;;;;;;;;5039658;28;20056;-75
2022/10/13 11:42:24;;;;;;;22.13;9.10;;;;;;;;;;5053774;28;20053;-77
2022/10/13 11:44:57;;;;;;;13.88;9.50;;;;;;;;;;5056380;28;20054;-74
2022/10/13 11:47:24;;;;;;;22.67;9.60;;;;;;;;;;5020307;28;20057;-76
2022/10/13 11:50:09;;;;;;;18.27;11.48;;;;;;;;;;5022995;28;20675;-77
2022/10/13 11:53:05;;;;;;;28.50;13.18;;;;;;;;;;5043330;28;20148;-76
2022/10/13 11:55:49;;;;;;;20.30;12.77;;;;;;;;;;5020002;28;20059;-77
2022/10/13 11:58:15;;;;;;;19.95;13.48;;;;;;;;;;5055880;28;20153;-76
2022/10/13 12:00:51;;;;;;;23.33;14.02;;;;;;;;;;5050139;28;20071;-77
2022/10/13 12:03:38;;;;;;;28.30;14.80;;;;;;;;;;5040453;28;20087;-76
2022/10/13 12:06:04;;;;;;;20.65;14.25;;;;;;;;;;5022784;28;20176;-76
2022/10/13 12:08:35;;;;;;;23.80;15.25;;;;;;;;;;5040396;28;20525;-75
2022/10/13 12:11:06;;;;;;;26.95;16.27;;;;;;;;;;5051622;28;20544;-76
2022/10/13 12:13:33;;;;;;;23.48;15.85;;;;;;;;;;5044465;28;20420;-75
2022/10/13 12:16:06;;;;;;;27.77;16.17;;;;;;;;;;5036222;28;20053;-76
2022/10/13 12:18:34;;;;;;;24.92;15.48;;;;;;;;;;5048612;28;20045;-76
2022/10/13 12:21:02;;;;;;;25.05;16.17;;;;;;;;;;5060302;28;20052;-75
2022/10/13 12:23:30;;;;;;;25.77;16.52;;;;;;;;;;5055343;28;20081;-75
2022/10/13 12:25:57;;;;;;;27.02;16.85;;;;;;;;;;5038771;28;20056;-75
2022/10/13 12:28:26;;;;;;;25.83;15.25;;;;;;;;;;5041330;28;20064;-78
2022/10/13 12:30:55;;;;;;;23.20;15.45;;;;;;;;;;5023586;28;20380;-75
2022/10/13 12:33:25;;;;;;;20.27;14.40;;;;;;;;;;5040000;28;20123;-75
2022/10/13 12:35:51;;;;;;;24.30;14.55;;;;;;;;;;5055580;28;20139;-74
2022/10/13 12:38:18;;;;;;;19.88;13.57;;;;;;;;;;5041595;28;20080;-75
2022/10/13 12:40:49;;;;;;;24.23;13.45;;;;;;;;;;5023604;28;20517;-75
2022/10/13 12:43:18;;;;;;;20.80;14.18;;;;;;;;;;5044718;28;20445;-75
2022/10/13 12:45:44;;;;;;;23.42;13.40;;;;;;;;;;5043896;28;20068;-75
2022/10/13 12:48:34;;;;;;;23.88;14.25;;;;;;;;;;5039544;28;20746;-75
2022/10/13 12:51:26;;;;;;;22.75;12.95;;;;;;;;;;5047127;28;20674;-75
2022/10/13 12:53:53;;;;;;;17.30;11.95;;;;;;;;;;5049385;28;20085;-75
2022/10/13 12:56:30;;;;;;;22.60;12.52;;;;;;;;;;5045227;28;20057;-75
2022/10/13 12:58:57;;;;;;;21.33;12.73;;;;;;;;;;5048942;28;20056;-75
2022/10/13 13:01:41;;;;;;;23.25;14.02;;;;;;;;;;5044985;28;20065;-75
2022/10/13 13:04:34;;;;;;;20.10;13.82;;;;;;;;;;5041461;28;20567;-75
2022/10/13 13:07:01;;;;;;;21.25;13.10;;;;;;;;;;5026177;28;20407;-76
2022/10/13 13:09:33;;;;;;;20.02;12.18;;;;;;;;;;5052574;28;20144;-75
2022/10/13 13:12:17;;;;;;;17.00;12.35;;;;;;;;;;5038959;28;20509;-75
2022/10/13 13:14:48;;;;;;;20.08;11.90;;;;;;;;;;5039549;28;20587;-74
2022/10/13 13:17:17;;;;;;;20.48;11.73;;;;;;;;;;5048425;28;20052;-75
2022/10/13 13:20:17;;;;;;;20.33;11.95;;;;;;;;;;5036548;28;20065;-75
2022/10/13 13:22:43;;;;;;;25.20;12.80;;;;;;;;;;5038176;28;20056;-75
2022/10/13 13:25:10;;;;;;;19.58;11.93;;;;;;;;;;5039298;28;20256;-76
2022/10/13 13:27:37;;;;;;;20.80;13.27;;;;;;;;;;5039119;28;20056;-76
2022/10/13 13:30:09;;;;;;;23.92;11.05;;;;;;;;;;5035825;28;20084;-76
2022/10/13 13:32:36;;;;;;;25.88;11.43;;;;;;;;;;5018582;28;20135;-76
2022/10/13 13:35:02;;;;;;;19.92;11.18;;;;;;;;;;5038537;28;20518;-75
2022/10/13 13:37:37;;;;;;;17.23;11.43;;;;;;;;;;5038345;28;20599;-76
2022/10/13 13:40:04;;;;;;;20.92;11.45;;;;;;;;;;5025224;28;20050;-75
2022/10/13 13:42:31;;;;;;;18.75;11.50;;;;;;;;;;5024584;28;20503;-77
2022/10/13 13:45:00;;;;;;;18.20;11.70;;;;;;;;;;5022464;28;20069;-77
2022/10/13 13:47:27;;;;;;;24.15;11.60;;;;;;;;;;5021547;28;20046;-76
2022/10/13 13:49:55;;;;;;;20.95;12.23;;;;;;;;;;5020459;28;20584;-76
2022/10/13 13:52:22;;;;;;;29.52;13.10;;;;;;;;;;5021105;28;20092;-76
2022/10/13 13:54:49;;;;;;;19.75;12.05;;;;;;;;;;5040517;28;20053;-77
2022/10/13 13:57:16;;;;;;;16.45;11.45;;;;;;;;;;5020630;28;20079;-78
2022/10/13 13:59:43;;;;;;;15.23;10.68;;;;;;;;;;5038941;28;20084;-78
2022/10/13 14:02:11;;;;;;;16.52;11.05;;;;;;;;;;5039483;28;20088;-76
2022/10/13 14:04:38;;;;;;;19.67;11.90;;;;;;;;;;5046566;28;20049;-76
2022/10/13 14:07:04;;;;;;;17.00;10.80;;;;;;;;;;5036619;28;20061;-75
2022/10/13 14:09:30;;;;;;;15.90;11.98;;;;;;;;;;5040537;28;20655;-76
2022/10/13 14:11:57;;;;;;;16.58;9.82;;;;;;;;;;5043084;28;20057;-76
2022/10/13 14:14:24;;;;;;;18.67;11.75;;;;;;;;;;5025256;28;20088;-76
2022/10/13 14:16:51;;;;;;;18.90;11.38;;;;;;;;;;5042411;28;20054;-75
2022/10/13 14:19:17;;;;;;;16.67;11.88;;;;;;;;;;5043266;28;20049;-75
2022/10/13 14:21:44;;;;;;;16.48;10.55;;;;;;;;;;5048264;28;20214;-77
2022/10/13 14:24:11;;;;;;;18.40;10.80;;;;;;;;;;5055316;28;20053;-77
2022/10/13 14:26:37;;;;;;;21.13;11.27;;;;;;;;;;5042288;28;20050;-76
2022/10/13 14:29:04;;;;;;;19.50;11.77;;;;;;;;;;5041291;28;20061;-76
2022/10/13 14:31:31;;;;;;;20.85;12.45;;;;;;;;;;5034892;28;20224;-76
2022/10/13 14:33:57;;;;;;;17.98;12.38;;;;;;;;;;5034069;28;20061;-75